Time;durP1;ratioP1;P1;durP2;ratioP2;P2;SDS_P1;SDS_P2;PMS_P1;PMS_P2;Temp;Humidity;BMP_temperature;BMP_pressure;BME280_temperature;BME280_humidity;BME280_pressure;Samples;Min_cycle;Max_cycle;Signal;HPM_P1;HPM_P2
2022/10/29 00:01:14;;;;;;;17.10;11.03;;;15.40;99.90;;;;;;2615661;54;20430;-78
2022/10/29 00:04:17;;;;;;;15.47;9.97;;;15.40;99.90;;;;;;2617217;39;20567;-78
2022/10/29 00:06:43;;;;;;;18.50;11.50;;;15.30;99.90;;;;;;2618334;54;20158;-81
2022/10/29 00:12:31;;;;;;;16.93;10.33;;;15.30;99.90;;;;;;2620803;54;20134;-80
2022/10/29 00:18:19;;;;;;;21.03;11.40;;;15.50;99.90;;;;;;2617657;54;20395;-79
2022/10/29 00:24:08;;;;;;;19.83;10.63;;;15.50;99.90;;;;;;2616685;54;20126;-78
2022/10/29 00:29:56;;;;;;;15.47;11.57;;;15.50;99.90;;;;;;2616489;54;20370;-78
2022/10/29 00:42:19;;;;;;;22.87;12.20;;;15.50;99.90;;;;;;2617407;54;20355;-77
2022/10/29 00:48:07;;;;;;;23.13;10.77;;;15.60;99.90;;;;;;2616259;54;20424;-79
2022/10/29 00:54:16;;;;;;;19.40;11.43;;;15.60;99.90;;;;;;2621520;54;20398;-80
2022/10/29 01:00:06;;;;;;;11.80;10.10;;;15.50;99.90;;;;;;2620781;54;20411;-81
2022/10/29 01:05:54;;;;;;;16.90;11.53;;;15.60;99.90;;;;;;2616794;39;20839;-80
2022/10/29 01:12:01;;;;;;;13.60;10.90;;;15.50;99.90;;;;;;2616437;54;20398;-80
2022/10/29 01:24:46;;;;;;;21.77;11.33;;;15.30;99.90;;;;;;2623832;54;20403;-79
2022/10/29 01:49:49;;;;;;;15.33;11.60;;;14.90;99.90;;;;;;2620231;54;20403;-78
2022/10/29 01:59:03;;;;;;;25.43;12.90;;;14.80;99.90;;;;;;2616915;54;20386;-79
2022/10/29 02:11:26;;;;;;;16.33;10.73;;;14.80;99.90;;;;;;2620064;54;20383;-79
2022/10/29 02:20:40;;;;;;;18.57;11.37;;;14.50;99.90;;;;;;2620391;54;20549;-79
2022/10/29 02:26:27;;;;;;;21.40;12.40;;;14.60;99.90;;;;;;2619753;39;20829;-80
2022/10/29 02:32:14;;;;;;;20.97;11.80;;;14.40;99.90;;;;;;2615014;54;20138;-79
2022/10/29 02:38:01;;;;;;;23.10;12.40;;;14.40;99.90;;;;;;2615334;54;20146;-79
2022/10/29 02:43:49;;;;;;;20.43;11.10;;;14.30;99.90;;;;;;2617273;54;20126;-78
2022/10/29 02:49:37;;;;;;;17.70;10.93;;;14.20;99.90;;;;;;2616008;54;20162;-77
2022/10/29 02:58:53;;;;;;;21.57;13.30;;;14.00;99.90;;;;;;2620319;54;20351;-77
2022/10/29 03:04:43;;;;;;;25.40;11.77;;;13.90;99.90;;;;;;2620084;54;20462;-79
2022/10/29 03:10:30;;;;;;;16.50;12.30;;;13.90;99.90;;;;;;2615545;54;20390;-78
2022/10/29 03:16:18;;;;;;;14.27;11.87;;;13.90;99.90;;;;;;2615843;54;20242;-78
2022/10/29 03:22:06;;;;;;;20.10;11.33;;;13.90;99.90;;;;;;2616371;54;20636;-78
2022/10/29 03:27:53;;;;;;;24.00;13.83;;;13.90;99.90;;;;;;2616263;54;20154;-77
2022/10/29 03:33:41;;;;;;;19.33;11.47;;;13.90;99.90;;;;;;2617148;54;20742;-78
2022/10/29 03:39:29;;;;;;;20.37;12.20;;;14.10;99.90;;;;;;2620600;54;20130;-80
2022/10/29 03:45:17;;;;;;;22.77;11.87;;;14.00;99.90;;;;;;2620216;54;20122;-80
2022/10/29 03:51:05;;;;;;;19.40;11.43;;;14.00;99.90;;;;;;2616621;54;20123;-80
2022/10/29 03:54:19;;;;;;;20.03;11.20;;;14.00;99.90;;;;;;2617209;54;20992;-80
2022/10/29 03:56:44;;;;;;;21.30;10.80;;;14.00;99.90;;;;;;2616373;54;20402;-78
2022/10/29 04:02:32;;;;;;;21.33;11.33;;;14.00;99.90;;;;;;2617418;54;20134;-80
2022/10/29 04:08:20;;;;;;;20.17;12.83;;;14.00;99.90;;;;;;2617046;54;20161;-79
2022/10/29 04:14:08;;;;;;;14.70;10.33;;;13.90;99.90;;;;;;2617504;54;20126;-80
2022/10/29 04:19:56;;;;;;;24.80;11.93;;;13.90;99.90;;;;;;2616413;54;20143;-78
2022/10/29 04:32:18;;;;;;;21.30;12.73;;;13.80;99.90;;;;;;2617926;39;20754;-79
2022/10/29 04:38:08;;;;;;;21.17;11.80;;;13.60;99.90;;;;;;2616850;54;20110;-78
2022/10/29 04:43:56;;;;;;;24.97;16.70;;;13.70;99.90;;;;;;2617510;54;20395;-80
2022/10/29 04:49:44;;;;;;;22.87;13.00;;;13.70;99.90;;;;;;2616642;54;20145;-78
2022/10/29 04:55:37;;;;;;;15.60;11.60;;;13.60;99.90;;;;;;2617323;54;20201;-78
2022/10/29 05:01:24;;;;;;;18.10;12.90;;;13.80;99.90;;;;;;2616696;54;20398;-79
2022/10/29 05:07:12;;;;;;;20.80;11.40;;;13.80;99.90;;;;;;2616409;54;20227;-79
2022/10/29 05:13:02;;;;;;;20.37;12.00;;;13.80;99.90;;;;;;2616411;54;20146;-80
2022/10/29 05:18:49;;;;;;;20.10;11.70;;;13.90;99.90;;;;;;2615473;54;20370;-80
2022/10/29 05:24:36;;;;;;;20.17;11.80;;;13.90;99.90;;;;;;2615522;54;20118;-80
2022/10/29 05:33:46;;;;;;;20.37;13.47;;;13.90;99.90;;;;;;2613679;54;20391;-80
2022/10/29 05:39:34;;;;;;;21.73;13.30;;;13.90;99.90;;;;;;2615903;54;20347;-81
2022/10/29 05:45:21;;;;;;;13.93;11.67;;;13.80;99.90;;;;;;2616120;54;20169;-79
2022/10/29 05:51:09;;;;;;;18.80;13.57;;;13.90;99.90;;;;;;2617049;54;20423;-80
2022/10/29 05:54:19;;;;;;;24.53;12.73;;;13.90;99.90;;;;;;2616444;54;20406;-80
2022/10/29 05:56:44;;;;;;;18.47;12.67;;;13.80;99.90;;;;;;2616436;47;20305;-79
2022/10/29 05:59:48;;;;;;;29.13;13.33;;;13.90;99.90;;;;;;2616867;54;20419;-80
2022/10/29 06:02:13;;;;;;;25.53;18.03;;;14.00;99.90;;;;;;2615526;54;20871;-78
2022/10/29 06:08:01;;;;;;;24.10;14.50;;;13.90;99.90;;;;;;2614434;39;20547;-79
2022/10/29 06:13:49;;;;;;;15.90;11.80;;;14.00;99.90;;;;;;2617035;54;20127;-78
2022/10/29 06:19:37;;;;;;;18.93;11.67;;;14.50;99.90;;;;;;2616616;54;20150;-77
2022/10/29 06:25:26;;;;;;;35.97;11.83;;;15.40;99.90;;;;;;2616100;54;20138;-80
2022/10/29 06:31:13;;;;;;;16.83;12.20;;;15.40;99.90;;;;;;2617558;54;20444;-78
2022/10/29 06:37:01;;;;;;;15.27;11.17;;;15.60;99.90;;;;;;2616116;54;20139;-78
2022/10/29 06:42:56;;;;;;;17.80;10.10;;;15.50;99.90;;;;;;2616995;54;20648;-78
2022/10/29 06:48:44;;;;;;;15.40;9.70;;;15.60;99.90;;;;;;2616922;54;20487;-78
2022/10/29 06:58:50;;;;;;;14.00;9.87;;;15.50;99.90;;;;;;2618760;54;20387;-79
2022/10/29 07:04:38;;;;;;;13.67;10.30;;;15.60;99.90;;;;;;2618093;54;20406;-78
2022/10/29 07:10:28;;;;;;;18.23;10.70;;;15.70;99.90;;;;;;2618530;54;20134;-79
2022/10/29 07:16:16;;;;;;;16.70;10.07;;;15.70;99.90;;;;;;2619530;54;20419;-80
2022/10/29 07:22:04;;;;;;;16.63;10.03;;;16.00;99.90;;;;;;2618974;54;20126;-79
2022/10/29 07:27:52;;;;;;;19.53;12.17;;;15.90;99.90;;;;;;2615786;54;20133;-79
2022/10/29 07:33:40;;;;;;;30.77;10.87;;;15.80;99.90;;;;;;2616921;54;20382;-78
2022/10/29 07:39:27;;;;;;;16.43;10.10;;;16.10;99.90;;;;;;2618789;54;20146;-78
2022/10/29 07:45:15;;;;;;;14.60;10.10;;;16.20;99.90;;;;;;2618040;54;20130;-78
2022/10/29 07:51:03;;;;;;;14.43;12.47;;;17.00;99.90;;;;;;2617259;54;20147;-79
2022/10/29 07:54:19;;;;;;;20.50;15.50;;;17.70;99.90;;;;;;2616555;54;20427;-79
2022/10/29 07:56:45;;;;;;;16.27;10.63;;;18.20;99.90;;;;;;2618684;47;20165;-79
2022/10/29 08:02:32;;;;;;;14.90;11.77;;;18.90;99.90;;;;;;2617822;54;20121;-79
2022/10/29 08:08:20;;;;;;;19.00;12.23;;;17.90;99.90;;;;;;2616237;54;20154;-79
2022/10/29 08:14:07;;;;;;;15.37;12.80;;;17.60;99.90;;;;;;2617523;54;20219;-78
2022/10/29 08:19:55;;;;;;;18.10;12.87;;;17.70;99.90;;;;;;2617848;54;20166;-79
2022/10/29 08:25:43;;;;;;;18.00;13.57;;;18.00;99.90;;;;;;2617601;54;20622;-78
2022/10/29 08:31:31;;;;;;;22.53;14.27;;;18.60;99.90;;;;;;2617905;39;20790;-79
2022/10/29 08:37:19;;;;;;;21.80;13.03;;;20.50;99.90;;;;;;2618195;54;20130;-78
2022/10/29 08:43:16;;;;;;;21.33;11.90;;;20.10;99.90;;;;;;2616456;54;20656;-80
2022/10/29 08:59:01;;;;;;;10.57;9.57;;;21.00;99.90;;;;;;2617166;54;20383;-79
2022/10/29 09:04:49;;;;;;;12.57;10.87;;;21.30;99.90;;;;;;2614848;54;20440;-77
2022/10/29 09:10:41;;;;;;;18.93;11.57;;;22.70;91.40;;;;;;2615723;54;20403;-78
2022/10/29 09:30:21;;;;;;;13.03;10.00;;;21.90;94.90;;;;;;2615616;54;20387;-79
2022/10/29 09:36:18;;;;;;;10.73;9.70;;;22.00;93.50;;;;;;2615590;54;20439;-78
2022/10/29 09:42:12;;;;;;;11.23;9.80;;;22.70;76.40;;;;;;2615368;46;20413;-78
2022/10/29 10:00:54;;;;;;;12.23;10.73;;;22.50;78.70;;;;;;2617645;54;20406;-79
2022/10/29 10:07:02;;;;;;;18.80;10.73;;;24.50;52.50;;;;;;2617497;54;20952;-79
2022/10/29 10:12:50;;;;;;;22.93;10.97;;;23.40;56.00;;;;;;2615002;54;20407;-79
2022/10/29 10:18:40;;;;;;;13.10;10.27;;;23.80;56.50;;;;;;2617138;39;20790;-78
2022/10/29 10:24:35;;;;;;;14.60;10.53;;;23.00;61.20;;;;;;2615952;54;20463;-78
2022/10/29 10:30:24;;;;;;;15.13;11.63;;;23.10;59.40;;;;;;2616417;54;20398;-78
2022/10/29 10:36:12;;;;;;;12.10;10.87;;;24.70;50.60;;;;;;2617039;54;20379;-79
2022/10/29 10:42:04;;;;;;;16.20;10.57;;;25.50;45.00;;;;;;2616439;39;20506;-80
2022/10/29 10:47:57;;;;;;;12.70;11.43;;;24.60;45.00;;;;;;2614329;54;20395;-79
2022/10/29 10:50:29;;;;;;;26.43;10.83;;;24.60;45.90;;;;;;2614564;51;20428;-78
2022/10/29 10:52:58;;;;;;;17.50;12.10;;;25.80;42.90;;;;;;2613874;47;21294;-79
2022/10/29 10:56:01;;;;;;;12.33;11.07;;;26.00;40.80;;;;;;2614596;47;20486;-77
2022/10/29 10:58:40;;;;;;;16.17;12.00;;;25.00;40.90;;;;;;2614662;54;20439;-79
2022/10/29 11:04:33;;;;;;;12.70;11.47;;;24.60;44.90;;;;;;2616032;54;20408;-79
2022/10/29 11:16:47;;;;;;;12.93;11.60;;;24.60;43.00;;;;;;2618335;54;20415;-80
2022/10/29 11:42:18;;;;;;;14.77;12.27;;;27.40;28.10;;;;;;2614733;54;20446;-79
2022/10/29 11:55:21;;;;;;;14.43;12.50;;;27.40;28.50;;;;;;2615347;39;20812;-78
2022/10/29 12:04:31;;;;;;;16.70;11.80;;;28.30;26.60;;;;;;2613986;39;20824;-76
2022/10/29 12:17:02;;;;;;;12.40;11.30;;;27.30;25.60;;;;;;2618302;39;20815;-78
2022/10/29 12:22:54;;;;;;;17.10;11.73;;;26.30;28.50;;;;;;2620594;54;20987;-80
2022/10/29 12:35:30;;;;;;;24.30;12.67;;;25.70;28.80;;;;;;2616135;54;20472;-77
2022/10/29 13:15:19;;;;;;;14.63;11.80;;;25.90;29.40;;;;;;2619694;54;20476;-82
2022/10/29 13:21:07;;;;;;;13.27;12.07;;;25.00;29.70;;;;;;2620845;54;20971;-79
2022/10/29 13:27:01;;;;;;;12.70;11.20;;;24.90;31.10;;;;;;2618478;54;20919;-80
2022/10/29 13:32:49;;;;;;;14.87;12.00;;;24.50;31.50;;;;;;2622074;54;20391;-80
2022/10/29 13:45:22;;;;;;;14.23;12.43;;;26.00;30.30;;;;;;2625132;54;20399;-81
2022/10/29 13:51:15;;;;;;;12.80;11.40;;;28.20;27.00;;;;;;2623722;54;20520;-75
2022/10/29 13:57:12;;;;;;;12.23;11.13;;;27.00;26.80;;;;;;2617850;54;20387;-76
2022/10/29 14:03:01;;;;;;;16.80;13.77;;;24.90;29.60;;;;;;2617811;54;20414;-77
2022/10/29 14:08:56;;;;;;;22.87;15.10;;;24.80;29.80;;;;;;2622392;54;20391;-81
2022/10/29 14:21:36;;;;;;;13.47;10.93;;;26.80;28.10;;;;;;2625162;54;20387;-81
2022/10/29 14:27:24;;;;;;;18.90;11.70;;;28.20;26.10;;;;;;2626109;54;20399;-83
2022/10/29 14:39:45;;;;;;;13.00;11.90;;;24.90;29.60;;;;;;2623586;54;20384;-82
2022/10/29 14:45:32;;;;;;;13.17;11.70;;;24.20;32.90;;;;;;2624264;54;20403;-81
2022/10/29 14:51:21;;;;;;;20.00;11.83;;;23.90;35.10;;;;;;2623958;54;20191;-83
2022/10/29 14:57:14;;;;;;;16.13;14.03;;;23.40;37.70;;;;;;2624689;54;20343;-81
2022/10/29 15:06:27;;;;;;;19.50;12.30;;;23.10;41.10;;;;;;2624051;54;20411;-82
2022/10/29 15:18:39;;;;;;;12.23;11.30;;;22.40;48.70;;;;;;2624401;54;20406;-81
2022/10/29 15:24:29;;;;;;;13.10;11.90;;;22.10;58.10;;;;;;2624913;54;20231;-81
2022/10/29 15:30:19;;;;;;;23.47;14.00;;;22.00;61.60;;;;;;2624615;54;20944;-81
2022/10/29 15:36:07;;;;;;;14.80;13.47;;;22.00;57.30;;;;;;2624991;54;20407;-82
2022/10/29 15:41:59;;;;;;;15.80;14.07;;;21.90;59.60;;;;;;2624968;54;20395;-82
2022/10/29 15:47:48;;;;;;;16.40;13.07;;;21.60;59.60;;;;;;2626001;54;20904;-82
2022/10/29 15:53:36;;;;;;;15.70;12.53;;;21.40;64.80;;;;;;2623749;54;20943;-82
2022/10/29 15:59:25;;;;;;;19.70;13.00;;;21.20;66.00;;;;;;2623619;54;20134;-80
2022/10/29 16:01:52;;;;;;;17.23;12.70;;;21.20;67.40;;;;;;2624943;54;20427;-84
2022/10/29 16:04:17;;;;;;;21.33;13.83;;;21.10;67.40;;;;;;2625659;39;21031;-83
2022/10/29 16:10:11;;;;;;;17.20;11.80;;;21.10;65.90;;;;;;2626407;54;20137;-81
2022/10/29 16:15:59;;;;;;;23.93;11.93;;;20.90;72.70;;;;;;2626341;54;20423;-82
2022/10/29 16:21:47;;;;;;;14.27;11.50;;;20.70;69.90;;;;;;2626549;54;20122;-83
2022/10/29 16:27:35;;;;;;;14.37;10.60;;;21.00;63.60;;;;;;2625590;54;20147;-82
2022/10/29 16:33:23;;;;;;;11.97;10.73;;;21.00;61.90;;;;;;2624664;54;20265;-82
2022/10/29 16:39:11;;;;;;;15.97;11.37;;;20.70;65.40;;;;;;2621424;39;20815;-86
2022/10/29 16:44:59;;;;;;;13.60;11.63;;;20.70;63.60;;;;;;2621841;54;20130;-82
2022/10/29 16:50:47;;;;;;;12.70;10.90;;;20.30;69.70;;;;;;2615619;54;21062;-76
2022/10/29 16:56:35;;;;;;;12.40;11.17;;;20.30;66.50;;;;;;2615468;54;20146;-77
2022/10/29 17:06:25;;;;;;;11.60;10.50;;;20.50;59.10;;;;;;2616112;54;20407;-78
2022/10/29 17:12:13;;;;;;;15.57;12.33;;;20.40;58.90;;;;;;2617258;54;20382;-76
2022/10/29 17:18:01;;;;;;;14.23;12.83;;;20.30;58.80;;;;;;2615316;54;20370;-76
2022/10/29 17:23:50;;;;;;;15.93;13.53;;;20.20;59.70;;;;;;2615971;54;20386;-77
2022/10/29 17:29:38;;;;;;;16.13;14.63;;;20.20;59.10;;;;;;2616547;54;20972;-76
2022/10/29 17:35:26;;;;;;;13.33;12.17;;;20.00;61.20;;;;;;2616032;54;20399;-76
2022/10/29 17:41:14;;;;;;;13.60;12.23;;;19.90;62.40;;;;;;2616556;54;20182;-76
2022/10/29 17:47:01;;;;;;;13.13;11.83;;;19.80;64.60;;;;;;2617211;39;20248;-76
2022/10/29 17:50:05;;;;;;;13.80;12.50;;;19.60;65.90;;;;;;2615231;54;20419;-76
2022/10/29 17:52:30;;;;;;;17.70;13.00;;;19.60;67.30;;;;;;2616365;47;20166;-76
2022/10/29 17:58:19;;;;;;;16.40;13.50;;;19.40;69.80;;;;;;2615799;54;20123;-77
2022/10/29 18:04:06;;;;;;;20.10;13.90;;;19.30;69.60;;;;;;2615101;54;20478;-77
2022/10/29 18:09:54;;;;;;;16.37;12.97;;;19.50;65.10;;;;;;2616057;54;20634;-78
2022/10/29 18:15:42;;;;;;;13.67;12.40;;;19.60;61.90;;;;;;2616439;54;20154;-78
2022/10/29 18:21:31;;;;;;;13.37;11.80;;;19.60;62.70;;;;;;2616535;54;20150;-77
2022/10/29 18:27:19;;;;;;;22.20;13.80;;;19.70;59.50;;;;;;2616634;47;20489;-77
2022/10/29 18:33:07;;;;;;;12.77;11.87;;;19.80;58.20;;;;;;2615507;54;20398;-79
2022/10/29 18:38:56;;;;;;;16.13;11.30;;;19.70;57.70;;;;;;2616901;54;20153;-77
2022/10/29 18:44:45;;;;;;;13.60;12.10;;;19.80;55.80;;;;;;2615827;54;20382;-77
2022/10/29 18:50:33;;;;;;;19.57;12.90;;;19.70;55.40;;;;;;2615363;54;20391;-76
2022/10/29 18:56:23;;;;;;;14.40;12.83;;;19.50;55.90;;;;;;2616543;54;20131;-76
2022/10/29 19:06:29;;;;;;;16.33;12.37;;;19.20;56.90;;;;;;2615088;54;20403;-76
2022/10/29 19:12:17;;;;;;;19.33;11.60;;;19.40;55.00;;;;;;2616030;54;20403;-77
2022/10/29 19:18:05;;;;;;;11.83;10.63;;;19.70;50.70;;;;;;2614605;54;20134;-75
2022/10/29 19:23:57;;;;;;;19.63;12.30;;;19.60;51.50;;;;;;2615304;54;20427;-76
2022/10/29 19:29:45;;;;;;;18.93;11.90;;;19.60;49.80;;;;;;2616374;54;20387;-76
2022/10/29 19:35:32;;;;;;;15.10;11.30;;;19.80;47.60;;;;;;2614777;54;20139;-75
2022/10/29 19:41:20;;;;;;;13.17;11.80;;;19.80;45.60;;;;;;2615872;54;20676;-75
2022/10/29 19:47:09;;;;;;;14.67;13.00;;;19.90;44.00;;;;;;2613607;54;20382;-75
2022/10/29 19:52:58;;;;;;;13.67;12.50;;;19.60;45.50;;;;;;2615284;54;20407;-76
2022/10/29 19:58:46;;;;;;;12.57;11.57;;;19.40;46.70;;;;;;2616045;54;20483;-76
2022/10/29 20:01:56;;;;;;;14.53;12.97;;;19.70;44.00;;;;;;2614288;54;20411;-75
2022/10/29 20:04:22;;;;;;;14.03;12.70;;;19.80;43.20;;;;;;2614451;47;20167;-75
2022/10/29 20:10:10;;;;;;;14.53;13.10;;;19.90;40.80;;;;;;2615513;54;20126;-75
2022/10/29 20:15:57;;;;;;;16.37;12.60;;;20.00;39.10;;;;;;2614093;54;20647;-75
2022/10/29 20:21:45;;;;;;;18.60;12.70;;;20.00;39.10;;;;;;2614781;54;20583;-76
2022/10/29 20:27:33;;;;;;;14.60;13.40;;;19.90;39.10;;;;;;2615573;39;20514;-76
2022/10/29 20:33:21;;;;;;;15.87;14.47;;;19.80;39.00;;;;;;2617233;54;20122;-76
2022/10/29 20:39:10;;;;;;;23.93;13.20;;;19.80;39.70;;;;;;2616241;54;20123;-76
2022/10/29 20:44:58;;;;;;;14.33;12.70;;;19.90;37.60;;;;;;2616557;54;20435;-76
2022/10/29 20:50:52;;;;;;;13.73;12.30;;;19.90;37.40;;;;;;2615228;54;20154;-76
2022/10/29 20:56:40;;;;;;;14.03;12.40;;;19.80;36.90;;;;;;2616000;54;20395;-77
2022/10/29 21:06:30;;;;;;;13.20;12.17;;;19.80;36.90;;;;;;2615661;54;20497;-75
2022/10/29 21:12:19;;;;;;;13.83;12.30;;;19.70;37.40;;;;;;2616286;54;20403;-78
2022/10/29 21:18:07;;;;;;;15.77;12.43;;;19.40;38.60;;;;;;2616525;54;20391;-78
2022/10/29 21:23:58;;;;;;;17.90;14.30;;;19.30;39.70;;;;;;2617333;31;20619;-79
2022/10/29 21:29:45;;;;;;;14.50;13.10;;;18.90;41.50;;;;;;2616781;54;20933;-74
2022/10/29 21:35:33;;;;;;;14.40;13.07;;;18.80;44.10;;;;;;2616585;39;20536;-77
2022/10/29 21:41:21;;;;;;;14.47;13.17;;;18.20;52.70;;;;;;2614361;54;20114;-77
2022/10/29 21:47:08;;;;;;;13.40;12.07;;;18.40;49.70;;;;;;2615876;54;20126;-77
2022/10/29 21:52:56;;;;;;;13.57;12.00;;;18.10;52.30;;;;;;2616180;54;20640;-77
2022/10/29 21:58:44;;;;;;;12.97;11.10;;;18.70;46.30;;;;;;2616088;54;20154;-77
2022/10/29 22:01:58;;;;;;;12.70;11.70;;;18.60;47.50;;;;;;2614171;54;20412;-77
2022/10/29 22:04:23;;;;;;;13.40;12.40;;;18.70;45.50;;;;;;2615359;54;20226;-77
2022/10/29 22:10:11;;;;;;;13.90;12.57;;;18.20;50.40;;;;;;2616028;54;20123;-76
2022/10/29 22:16:00;;;;;;;14.00;12.70;;;17.90;52.40;;;;;;2616309;54;20127;-77
2022/10/29 22:21:49;;;;;;;13.23;11.93;;;18.10;51.70;;;;;;2614842;54;20410;-77
2022/10/29 22:27:38;;;;;;;15.20;12.10;;;17.70;56.50;;;;;;2615854;54;20366;-77
2022/10/29 22:33:26;;;;;;;17.63;12.57;;;17.70;59.50;;;;;;2615938;54;20438;-78
2022/10/29 22:39:13;;;;;;;14.87;12.00;;;18.00;52.70;;;;;;2614467;54;20398;-78
2022/10/29 22:45:02;;;;;;;14.80;11.93;;;18.20;50.90;;;;;;2616574;39;20513;-77
2022/10/29 22:57:23;;;;;;;13.47;12.17;;;18.10;51.20;;;;;;2615227;54;20408;-78
2022/10/29 23:06:33;;;;;;;14.80;12.63;;;18.40;49.00;;;;;;2614296;54;20534;-77
2022/10/29 23:12:40;;;;;;;13.63;11.90;;;18.20;50.40;;;;;;2614972;54;20420;-76
2022/10/29 23:18:27;;;;;;;13.77;12.30;;;18.30;50.60;;;;;;2615062;39;20577;-77
2022/10/29 23:24:14;;;;;;;23.57;12.30;;;17.90;53.60;;;;;;2615203;54;20126;-77
2022/10/29 23:30:03;;;;;;;13.30;11.97;;;18.10;51.90;;;;;;2616264;54;20154;-76
2022/10/29 23:35:50;;;;;;;13.07;11.93;;;18.10;51.70;;;;;;2614773;54;20957;-78
2022/10/29 23:41:37;;;;;;;12.70;11.70;;;18.10;51.50;;;;;;2615458;54;20135;-77
2022/10/29 23:47:24;;;;;;;13.80;11.40;;;18.00;53.00;;;;;;2616007;54;20158;-77
2022/10/29 23:50:28;;;;;;;14.37;12.47;;;18.20;52.00;;;;;;2614800;54;20547;-76
2022/10/29 23:52:53;;;;;;;14.03;12.90;;;18.20;51.60;;;;;;2615886;54;20261;-77
2022/10/29 23:58:41;;;;;;;13.73;12.47;;;18.10;52.30;;;;;;2614502;54;20158;-77
